• Join FlightAware (Why Join?)
  • Login
  • US Flag 
05:43AM EDT


 

Airport Tracker/Info


-or-


 

Live Flight TrackerFlight Track Log ✈ ASQ5313 ✈ 20-Jun-2013 ✈ KEWN - KATL

Flight Track Log - Related Links

Times and Time Zones

All times are in EDT time to prevent confusion due to time zone crossing. See the ASQ5313 flight status page for this flight to view local times or setup timezone preferences in your user account.

Time Position Orientation Groundspeed Altitude Reporting Facility
EDT Latitude Longitude Course Direction KTS MPH feet Rate Location/Type
06:00AM 35.1392 -77.0753 259° West 269 310 4,100  Level Washington Center
06:01AM 35.1108 -77.1636 249° West 281 323 6,400 2,400 Climbing Washington Center
06:02AM 35.0803 -77.2544 248° West 286 329 9,100 2,100 Climbing Washington Center
06:03AM 35.0478 -77.3478 247° West 297 342 10,700 1,440 Climbing Washington Center
06:04AM 34.8628 -77.6650 246° West  Level FlightAware Approximate
06:04AM 35.0128 -77.4561 248° West 317 365 12,000  Level Washington Center
06:05AM 34.8301 -77.7698 259° West  Level FlightAware Approximate
06:05AM 34.9733 -77.5692 247° West 349 402 13,500  Level Washington Center
06:06AM 34.9297 -77.6897 246° West 354 407 15,000 1,500 Climbing Washington Center
06:07AM 34.8919 -77.8053 248° West 360 414 16,500 1,260 Climbing Washington Center
06:08AM 34.8503 -77.9231 247° West 374 430 17,600 960 Climbing Washington Center
06:09AM 34.8103 -78.0433 248° West 379 436 18,500 960 Climbing Washington Center
06:11AM 34.7172 -78.3161 248° West 391 450 20,700 900 Climbing Jacksonville Center
06:12AM 34.6831 -78.4114 246° West 391 450 21,500 960 Climbing Jacksonville Center
06:13AM 34.6314 -78.5428 244° Southwest 391 450 22,700 1,080 Climbing Jacksonville Center
06:14AM 34.5894 -78.6633 247° West 391 450 23,700 960 Climbing Jacksonville Center
06:15AM 34.5417 -78.7917 246° West 391 450 24,700 720 Climbing Jacksonville Center
06:16AM 34.5072 -78.8917 247° West 391 450 25,200 540 Climbing Jacksonville Center
06:17AM 34.4556 -79.0425 247° West 396 456 25,800 360 Climbing Jacksonville Center
06:18AM 34.4094 -79.1678 246° West 404 465 26,000 60 Climbing Jacksonville Center
06:19AM 34.3631 -79.3006 247° West 411 473 26,000  Level Jacksonville Center
06:20AM 34.3106 -79.4336 244° Southwest 426 490 26,000  Level Jacksonville Center
06:21AM 34.2622 -79.5711 247° West 431 496 26,000  Level Jacksonville Center
06:22AM 34.2219 -79.7133 251° West 442 509 26,000  Level Jacksonville Center
06:23AM 34.1817 -79.8578 251° West 453 521 26,000  Level Jacksonville Center
06:24AM 34.1414 -80.0022 251° West 460 529 26,000  Level Jacksonville Center
06:25AM 34.1050 -80.1489 253° West 460 529 26,000  Level Jacksonville Center
06:26AM 34.0664 -80.2931 252° West 460 529 26,000  Level Jacksonville Center
06:27AM 34.0256 -80.4419 252° West 467 537 26,000  Level Jacksonville Center
06:28AM 33.9864 -80.5858 252° West 467 537 26,000  Level Jacksonville Center
06:29AM 33.9472 -80.7297 252° West 467 537 26,000  Level Jacksonville Center
06:30AM 33.9081 -80.8756 252° West 467 537 26,000  Level Jacksonville Center
06:31AM 33.8683 -81.0217 252° West 467 537 26,000  Level Jacksonville Center
06:32AM 33.8247 -81.1675 250° West 467 537 26,000  Level Jacksonville Center
06:33AM 33.7828 -81.3108 251° West 467 537 26,000 -300 Level Jacksonville Center
06:35AM 33.6931 -81.6069 250° West 466 536 25,100 -480 Descending Atlanta Center
06:36AM 33.6478 -81.7581 250° West 473 544 24,600 -540 Descending Atlanta Center
06:37AM 33.6025 -81.9089 250° West 479 551 24,100 -300 Descending Atlanta Center
06:38AM 33.5569 -82.0544 249° West 479 551 24,000 -60 Descending Atlanta Center
06:39AM 33.5133 -82.2000 250° West 473 544 24,000  Level Atlanta Center
06:40AM 33.4636 -82.3656 250° West 478 550 24,000  Level Atlanta Center
06:41AM 33.4236 -82.5081 251° West 468 539 24,000  Level Atlanta Center
06:42AM 33.3792 -82.6383 248° West 468 539 24,000  Level Atlanta Center
06:43AM 33.3347 -82.7806 250° West 463 533 24,000  Level Atlanta Center
06:44AM 33.2944 -82.9231 251° West 463 533 24,000  Level Atlanta Center
06:45AM 33.2497 -83.0650 249° West 469 540 24,000 -300 Level Atlanta Center
06:46AM 33.2319 -83.2144 262° West 456 525 23,500 -1,500 Descending Atlanta Center
06:47AM 33.2247 -83.3683 267° West 462 532 21,000 -2,460 Descending Atlanta Center
06:48AM 33.2214 -83.5272 269° West 455 524 18,600 -2,340 Descending Atlanta Center
06:49AM 33.2175 -83.6664 268° West 437 503 16,400 -2,280 Descending Atlanta Center
06:50AM 33.2167 -83.7500 269° West 422 486 14,900 -1,500 Descending Atlanta TRACON
06:51AM 33.2667 -83.8667 297° West 404 465 14,000 -900 Descending Atlanta TRACON
06:52AM 33.3333 -83.9833 304° West 402 463 13,200 -900 Descending Atlanta TRACON
06:53AM 33.3833 -84.0500 312° West 370 426 12,400 -900 Descending Atlanta TRACON
06:53AM 33.4144 -84.1086 302° West 375 432 12,000 -360 Descending Atlanta Center
06:54AM 33.4500 -84.1500 316° Northwest 296 341 12,000  Level Atlanta TRACON
06:56AM 33.5500 -84.3167 306° West 264 304 12,000 -480 Level Atlanta TRACON
06:57AM 33.5500 -84.4000 270° West 258 297 10,600 -1,740 Descending Atlanta TRACON
06:58AM 33.5500 -84.4833 270° West 259 298 8,600 -2,100 Descending Atlanta TRACON
06:59AM 33.5500 -84.5667 270° West 248 285 6,400 -2,220 Descending Atlanta TRACON
07:00AM 33.5500 -84.6500 270° West 246 283 4,200 -1,740 Descending Atlanta TRACON
07:01AM 33.5667 -84.7167 287° West 250 288 3,000 -420 Descending Atlanta TRACON
07:03AM 33.6333 -84.6500 40° Northeast 201 231 3,000  Level Atlanta TRACON
07:04AM 33.6333 -84.5833 90° East 198 228 3,000 -360 Level Atlanta TRACON
07:05AM 33.6333 -84.5333 90° East 173 199 2,300 -780 Descending Atlanta TRACON
07:06AM 33.6333 -84.4833 90° East 136 157 1,500 -840 Descending Atlanta TRACON
07:08AM 33.6367 -84.4279 64° Northeast  Level Estimated
07:15AM 33.6367 -84.4279 64° Northeast  Level Estimated